Time;durP1;ratioP1;P1;durP2;ratioP2;P2;SDS_P1;SDS_P2;PMS_P1;PMS_P2;Temp;Humidity;BMP_temperature;BMP_pressure;BME280_temperature;BME280_humidity;BME280_pressure;Samples;Min_cycle;Max_cycle;Signal;HPM_P1;HPM_P2
2022/03/20 00:01:38;;;;;;;10.00;6.13;;;;;;;;;;10361649;28;20026;-50
2022/03/20 00:06:39;;;;;;;11.88;6.85;;;;;;;;;;10360463;28;20429;-50
2022/03/20 00:11:39;;;;;;;10.52;6.55;;;;;;;;;;10355226;28;20072;-46
2022/03/20 00:16:40;;;;;;;11.43;7.00;;;;;;;;;;10361931;28;20033;-48
2022/03/20 00:21:41;;;;;;;11.02;6.03;;;;;;;;;;10363399;28;20505;-47
2022/03/20 00:26:41;;;;;;;12.55;7.15;;;;;;;;;;10362953;28;20034;-47
2022/03/20 00:31:42;;;;;;;8.65;6.78;;;;;;;;;;10348298;28;20625;-44
2022/03/20 00:36:43;;;;;;;12.02;6.35;;;;;;;;;;10365144;28;20030;-48
2022/03/20 00:41:43;;;;;;;15.43;7.32;;;;;;;;;;10368127;28;20030;-49
2022/03/20 00:46:44;;;;;;;17.85;6.95;;;;;;;;;;10371247;28;20033;-50
2022/03/20 00:51:44;;;;;;;12.48;6.40;;;;;;;;;;10370213;28;20033;-49
2022/03/20 00:56:46;;;;;;;10.63;6.38;;;;;;;;;;10366629;28;20073;-49
2022/03/20 01:01:47;;;;;;;12.32;6.70;;;;;;;;;;10368446;28;20053;-48
2022/03/20 01:06:47;;;;;;;16.38;6.85;;;;;;;;;;10368887;28;20120;-49
2022/03/20 01:11:48;;;;;;;13.73;6.57;;;;;;;;;;10370527;28;20049;-49
2022/03/20 01:16:49;;;;;;;15.93;6.38;;;;;;;;;;10370493;28;20531;-49
2022/03/20 01:21:51;;;;;;;14.32;6.30;;;;;;;;;;10370079;28;20034;-50
2022/03/20 01:26:52;;;;;;;12.88;7.45;;;;;;;;;;10367015;28;20033;-49
2022/03/20 01:31:52;;;;;;;15.57;6.78;;;;;;;;;;10369018;28;20060;-50
2022/03/20 01:36:53;;;;;;;10.70;5.95;;;;;;;;;;10362099;28;20032;-50
2022/03/20 01:41:55;;;;;;;13.38;6.35;;;;;;;;;;10363032;28;20528;-48
2022/03/20 01:46:56;;;;;;;15.10;6.43;;;;;;;;;;10366916;28;20105;-48
2022/03/20 01:52:13;;;;;;;12.48;6.13;;;;;;;;;;10369214;28;20034;-50
2022/03/20 01:57:17;;;;;;;10.15;6.47;;;;;;;;;;10368576;28;20085;-47
2022/03/20 02:02:18;;;;;;;11.25;6.18;;;;;;;;;;10364776;28;20034;-48
2022/03/20 02:07:20;;;;;;;10.35;6.38;;;;;;;;;;10367852;28;20091;-48
2022/03/20 02:12:21;;;;;;;15.88;6.28;;;;;;;;;;10350972;28;20026;-48
2022/03/20 02:17:22;;;;;;;8.55;6.00;;;;;;;;;;10367997;28;20033;-50
2022/03/20 02:22:24;;;;;;;8.82;6.05;;;;;;;;;;10367870;28;20057;-50
2022/03/20 02:27:27;;;;;;;11.55;5.88;;;;;;;;;;10367864;28;20026;-49
2022/03/20 02:32:31;;;;;;;9.13;5.55;;;;;;;;;;10366135;28;20104;-49
2022/03/20 02:37:34;;;;;;;9.27;5.82;;;;;;;;;;10367526;28;20048;-48
2022/03/20 02:42:38;;;;;;;13.77;6.10;;;;;;;;;;10361598;28;20030;-47
2022/03/20 02:47:45;;;;;;;8.75;5.53;;;;;;;;;;10360854;28;20046;-46
2022/03/20 02:52:56;;;;;;;8.90;5.95;;;;;;;;;;10365553;28;20029;-48
2022/03/20 02:58:01;;;;;;;7.55;5.82;;;;;;;;;;10361122;28;20038;-48
2022/03/20 03:03:04;;;;;;;8.95;5.45;;;;;;;;;;10366704;28;20034;-49
2022/03/20 03:13:34;;;;;;;8.55;6.13;;;;;;;;;;10359146;28;20037;-48
2022/03/20 03:18:37;;;;;;;6.88;5.50;;;;;;;;;;10366297;28;20030;-48
2022/03/20 03:23:38;;;;;;;7.30;5.50;;;;;;;;;;10366026;28;20072;-48
2022/03/20 03:28:40;;;;;;;8.90;5.78;;;;;;;;;;10365183;28;20037;-47
2022/03/20 03:35:41;;;;;;;8.07;5.60;;;;;;;;;;10366267;28;20038;-46
2022/03/20 03:39:02;;;;;;;7.10;5.70;;;;;;;;;;10363908;28;20041;-49
2022/03/20 03:44:03;;;;;;;11.07;5.40;;;;;;;;;;10365181;28;20543;-48
2022/03/20 03:49:03;;;;;;;8.35;5.28;;;;;;;;;;10359811;28;20030;-46
2022/03/20 03:54:04;;;;;;;7.35;5.65;;;;;;;;;;10358767;28;20473;-48
2022/03/20 03:59:04;;;;;;;7.05;5.03;;;;;;;;;;10365014;28;20424;-47
2022/03/20 04:04:05;;;;;;;7.72;5.90;;;;;;;;;;10370716;28;20092;-49
2022/03/20 04:09:06;;;;;;;8.38;5.70;;;;;;;;;;10373175;28;20026;-46
2022/03/20 04:14:06;;;;;;;10.93;5.35;;;;;;;;;;10372407;28;20032;-49
2022/03/20 04:19:08;;;;;;;7.93;5.50;;;;;;;;;;10372735;28;20026;-48
2022/03/20 04:24:09;;;;;;;6.15;5.10;;;;;;;;;;10369030;28;20523;-49
2022/03/20 04:29:09;;;;;;;8.23;5.63;;;;;;;;;;10369455;28;20036;-49
2022/03/20 04:34:11;;;;;;;6.35;5.20;;;;;;;;;;10372177;28;20478;-50
2022/03/20 04:39:11;;;;;;;9.15;5.68;;;;;;;;;;10372197;28;20032;-50
2022/03/20 04:44:13;;;;;;;6.88;4.90;;;;;;;;;;10371443;28;20044;-51
2022/03/20 04:59:53;;;;;;;8.00;4.88;;;;;;;;;;10344360;28;20081;-49
2022/03/20 05:04:54;;;;;;;5.70;4.63;;;;;;;;;;10371374;28;20037;-48
2022/03/20 05:15:14;;;;;;;8.48;4.95;;;;;;;;;;10369919;28;20117;-49
2022/03/20 05:20:16;;;;;;;5.97;4.60;;;;;;;;;;10370626;28;20041;-49
2022/03/20 05:25:17;;;;;;;9.65;4.78;;;;;;;;;;10370116;28;20040;-49
2022/03/20 05:30:18;;;;;;;6.50;5.28;;;;;;;;;;10369646;28;20077;-48
2022/03/20 05:35:19;;;;;;;8.70;5.45;;;;;;;;;;10370547;28;20422;-50
2022/03/20 05:40:19;;;;;;;6.22;4.50;;;;;;;;;;10369665;28;20037;-49
2022/03/20 05:45:20;;;;;;;7.13;5.20;;;;;;;;;;10365045;28;20038;-50
2022/03/20 05:50:23;;;;;;;5.97;5.07;;;;;;;;;;10369433;28;20053;-48
2022/03/20 05:58:01;;;;;;;6.57;4.85;;;;;;;;;;10367627;28;20045;-50
2022/03/20 06:00:44;;;;;;;7.03;5.10;;;;;;;;;;10362113;28;20393;-48
2022/03/20 06:05:47;;;;;;;7.35;4.75;;;;;;;;;;10363604;28;20026;-48
2022/03/20 06:10:48;;;;;;;5.57;4.57;;;;;;;;;;10365071;28;20030;-48
2022/03/20 06:15:49;;;;;;;9.60;4.90;;;;;;;;;;10367640;28;20029;-49
2022/03/20 06:20:49;;;;;;;5.43;4.38;;;;;;;;;;10368322;28;20025;-48
2022/03/20 06:25:53;;;;;;;6.15;4.45;;;;;;;;;;10366878;28;20033;-49
2022/03/20 06:30:54;;;;;;;6.28;4.88;;;;;;;;;;10367866;28;20041;-48
2022/03/20 06:35:55;;;;;;;6.55;4.45;;;;;;;;;;10367566;28;20037;-49
2022/03/20 06:40:56;;;;;;;6.85;4.53;;;;;;;;;;10367216;28;20018;-48
2022/03/20 06:45:57;;;;;;;6.07;4.82;;;;;;;;;;10367295;28;20481;-48
2022/03/20 06:50:58;;;;;;;6.28;4.85;;;;;;;;;;10367243;28;20052;-51
2022/03/20 06:55:59;;;;;;;5.88;4.80;;;;;;;;;;10365715;28;20034;-48
2022/03/20 07:01:00;;;;;;;4.80;3.80;;;;;;;;;;10366977;28;20034;-48
2022/03/20 07:06:00;;;;;;;6.95;4.95;;;;;;;;;;10361253;28;20041;-47
2022/03/20 07:11:01;;;;;;;6.35;4.55;;;;;;;;;;10361713;28;20049;-48
2022/03/20 07:16:02;;;;;;;5.72;4.57;;;;;;;;;;10364728;28;20568;-48
2022/03/20 07:21:02;;;;;;;6.47;4.80;;;;;;;;;;10346786;28;20720;-48
2022/03/20 07:31:23;;;;;;;7.53;5.03;;;;;;;;;;10362738;28;20034;-48
2022/03/20 07:36:23;;;;;;;5.53;4.57;;;;;;;;;;10364669;28;20034;-47
2022/03/20 07:41:24;;;;;;;6.93;5.40;;;;;;;;;;10371155;28;20025;-48
2022/03/20 07:46:25;;;;;;;9.48;5.32;;;;;;;;;;10371317;28;20393;-48
2022/03/20 07:51:26;;;;;;;7.03;5.32;;;;;;;;;;10372228;28;20045;-49
2022/03/20 07:56:28;;;;;;;5.28;4.78;;;;;;;;;;10370766;28;20602;-48
2022/03/20 08:01:28;;;;;;;7.80;5.68;;;;;;;;;;10371249;28;20563;-48
2022/03/20 08:06:29;;;;;;;5.90;4.80;;;;;;;;;;10371654;28;20084;-48
2022/03/20 08:11:30;;;;;;;7.75;4.97;;;;;;;;;;10366379;28;20022;-47
2022/03/20 08:16:31;;;;;;;7.55;5.50;;;;;;;;;;10363918;28;20088;-48
2022/03/20 08:21:35;;;;;;;6.72;5.38;;;;;;;;;;10366683;28;20076;-50
2022/03/20 08:26:35;;;;;;;9.02;5.85;;;;;;;;;;10371108;28;20485;-49
2022/03/20 08:31:36;;;;;;;12.77;6.22;;;;;;;;;;10368321;28;20034;-49
2022/03/20 08:36:37;;;;;;;10.95;6.22;;;;;;;;;;10368035;28;20033;-49
2022/03/20 08:41:38;;;;;;;13.73;7.82;;;;;;;;;;10370575;28;20092;-48
2022/03/20 08:46:39;;;;;;;18.65;7.35;;;;;;;;;;10352786;28;20117;-50
2022/03/20 08:51:40;;;;;;;13.07;9.20;;;;;;;;;;10370693;28;20029;-58
2022/03/20 08:56:42;;;;;;;15.63;9.10;;;;;;;;;;10363971;28;20519;-56
2022/03/20 09:01:42;;;;;;;15.45;9.55;;;;;;;;;;10363901;28;20152;-49
2022/03/20 09:06:47;;;;;;;11.82;8.93;;;;;;;;;;10365591;28;20109;-58
2022/03/20 09:11:47;;;;;;;13.00;9.27;;;;;;;;;;10366819;28;20144;-49
2022/03/20 09:22:11;;;;;;;16.70;9.65;;;;;;;;;;10362473;28;20022;-55
2022/03/20 09:27:12;;;;;;;12.30;8.38;;;;;;;;;;10367293;28;20037;-48
2022/03/20 09:32:13;;;;;;;14.63;9.50;;;;;;;;;;10370057;28;20041;-60
2022/03/20 09:37:13;;;;;;;15.82;10.20;;;;;;;;;;10370027;28;20040;-49
2022/03/20 09:42:14;;;;;;;19.80;9.40;;;;;;;;;;10368517;28;20026;-48
2022/03/20 09:47:19;;;;;;;17.15;9.05;;;;;;;;;;10365266;28;20041;-48
2022/03/20 09:52:19;;;;;;;15.95;9.60;;;;;;;;;;10368891;28;20121;-56
2022/03/20 09:57:28;;;;;;;19.90;9.63;;;;;;;;;;10365736;28;20128;-57
2022/03/20 10:02:29;;;;;;;;;;;;;;;;;;10367812;28;20419;-48
2022/03/20 10:07:33;;;;;;;16.98;9.38;;;;;;;;;;10364682;28;20020;-49
2022/03/20 10:12:36;;;;;;;11.90;8.88;;;;;;;;;;10364797;28;20109;-49
2022/03/20 10:17:39;;;;;;;17.98;9.30;;;;;;;;;;10363111;28;20654;-48
2022/03/20 10:22:39;;;;;;;12.48;8.48;;;;;;;;;;10359699;28;20421;-64
2022/03/20 10:28:00;;;;;;;11.27;8.60;;;;;;;;;;10362584;28;20061;-55
2022/03/20 10:33:13;;;;;;;12.65;8.68;;;;;;;;;;10364939;28;20033;-64
2022/03/20 10:38:14;;;;;;;15.43;9.40;;;;;;;;;;10364095;28;20029;-60
2022/03/20 10:43:17;;;;;;;14.60;8.73;;;;;;;;;;10359099;28;20181;-60
2022/03/20 10:48:33;;;;;;;12.18;8.32;;;;;;;;;;10364464;28;20117;-64
2022/03/20 10:53:55;;;;;;;11.80;8.77;;;;;;;;;;10361558;28;20068;-56
2022/03/20 10:58:56;;;;;;;14.25;9.75;;;;;;;;;;10364199;28;21591;-53
2022/03/20 11:03:58;;;;;;;14.18;8.95;;;;;;;;;;10363117;28;20030;-60
2022/03/20 11:09:02;;;;;;;13.10;9.35;;;;;;;;;;10345855;28;20065;-49
2022/03/20 11:14:04;;;;;;;14.77;9.50;;;;;;;;;;10363822;28;20474;-63
2022/03/20 11:19:09;;;;;;;11.98;9.25;;;;;;;;;;10365963;28;20088;-51
2022/03/20 11:24:11;;;;;;;13.48;9.32;;;;;;;;;;10343897;28;20026;-58
2022/03/20 11:29:13;;;;;;;13.45;8.68;;;;;;;;;;10340766;28;20389;-62
2022/03/20 11:34:14;;;;;;;18.65;9.82;;;;;;;;;;10362682;28;20034;-49
2022/03/20 11:39:15;;;;;;;15.57;9.30;;;;;;;;;;10338558;28;20018;-50
2022/03/20 11:44:21;;;;;;;16.90;9.70;;;;;;;;;;10363532;28;20052;-49
2022/03/20 11:49:23;;;;;;;17.80;9.82;;;;;;;;;;10362792;28;20053;-46
2022/03/20 11:54:42;;;;;;;16.50;9.38;;;;;;;;;;10360738;28;20022;-48
2022/03/20 11:59:48;;;;;;;22.75;8.60;;;;;;;;;;10365463;28;20119;-48
2022/03/20 12:05:03;;;;;;;20.52;9.05;;;;;;;;;;10365029;28;20030;-46
2022/03/20 12:10:44;;;;;;;19.08;9.18;;;;;;;;;;10361128;28;20081;-46
2022/03/20 12:15:45;;;;;;;14.52;9.20;;;;;;;;;;10337092;28;20100;-47
2022/03/20 12:21:00;;;;;;;13.65;8.68;;;;;;;;;;10362798;28;20064;-49
2022/03/20 12:26:31;;;;;;;24.02;9.23;;;;;;;;;;10370498;28;20034;-46
2022/03/20 12:32:21;;;;;;;14.50;8.75;;;;;;;;;;10370766;28;20030;-50
2022/03/20 12:37:31;;;;;;;12.93;8.55;;;;;;;;;;10348285;28;20041;-51
2022/03/20 12:42:33;;;;;;;12.57;8.13;;;;;;;;;;10358515;28;20034;-48
2022/03/20 12:47:35;;;;;;;17.90;9.45;;;;;;;;;;10365039;28;20394;-47
2022/03/20 12:52:38;;;;;;;14.23;8.27;;;;;;;;;;10363917;28;20030;-46
2022/03/20 12:57:40;;;;;;;17.30;8.25;;;;;;;;;;10361721;28;20042;-64
2022/03/20 13:03:09;;;;;;;25.95;8.82;;;;;;;;;;10359706;28;20022;-62
2022/03/20 13:08:10;;;;;;;23.27;8.20;;;;;;;;;;10365130;28;20040;-64
2022/03/20 13:13:13;;;;;;;21.08;8.95;;;;;;;;;;10352681;28;20034;-50
2022/03/20 13:18:14;;;;;;;14.13;7.43;;;;;;;;;;10367842;28;20550;-48
2022/03/20 13:23:19;;;;;;;16.50;8.15;;;;;;;;;;10368290;28;20358;-48
2022/03/20 13:28:28;;;;;;;12.60;6.75;;;;;;;;;;10366920;28;20034;-48
2022/03/20 13:33:31;;;;;;;16.23;7.63;;;;;;;;;;10367142;28;20126;-48
2022/03/20 13:38:48;;;;;;;17.45;7.50;;;;;;;;;;10366992;28;20033;-50
2022/03/20 13:44:04;;;;;;;9.60;7.20;;;;;;;;;;10367475;28;20026;-48
2022/03/20 13:49:07;;;;;;;14.77;7.32;;;;;;;;;;10358977;28;20048;-48
2022/03/20 13:54:39;;;;;;;11.73;7.68;;;;;;;;;;10362240;28;20040;-48
2022/03/20 13:59:58;;;;;;;12.60;7.00;;;;;;;;;;10366220;28;20066;-48
2022/03/20 14:05:07;;;;;;;;;;;;;;;;;;10368280;28;20120;-48
2022/03/20 14:10:22;;;;;;;14.82;7.28;;;;;;;;;;10367413;28;20005;-48
2022/03/20 14:15:23;;;;;;;14.52;6.93;;;;;;;;;;10368762;28;20451;-48
2022/03/20 14:20:29;;;;;;;10.88;6.95;;;;;;;;;;10366269;28;20038;-51
2022/03/20 14:25:44;;;;;;;17.13;6.63;;;;;;;;;;10365664;28;20026;-53
2022/03/20 14:41:27;;;;;;;12.45;6.57;;;;;;;;;;10360666;28;20038;-63
2022/03/20 14:46:29;;;;;;;8.02;6.20;;;;;;;;;;10359772;28;20116;-48
2022/03/20 14:51:30;;;;;;;16.20;7.20;;;;;;;;;;10355288;28;20041;-48
2022/03/20 14:56:32;;;;;;;24.83;7.68;;;;;;;;;;10364519;28;20397;-48
2022/03/20 15:01:34;;;;;;;15.65;7.93;;;;;;;;;;10352909;28;20040;-48
2022/03/20 15:06:35;;;;;;;17.00;7.03;;;;;;;;;;10362491;28;20152;-48
2022/03/20 15:11:36;;;;;;;14.02;7.65;;;;;;;;;;10363533;28;20551;-47
2022/03/20 15:16:36;;;;;;;19.83;7.28;;;;;;;;;;10358529;28;20033;-48
2022/03/20 15:21:37;;;;;;;13.10;7.25;;;;;;;;;;10362235;28;20133;-60
2022/03/20 15:26:38;;;;;;;13.32;6.72;;;;;;;;;;10364743;28;20467;-48
2022/03/20 15:31:39;;;;;;;13.43;6.72;;;;;;;;;;10365822;28;20038;-52
2022/03/20 15:36:40;;;;;;;16.05;6.97;;;;;;;;;;10362858;28;20030;-47
2022/03/20 15:41:44;;;;;;;16.45;7.22;;;;;;;;;;10365283;28;20149;-48
2022/03/20 15:46:47;;;;;;;12.15;6.95;;;;;;;;;;10364435;28;20068;-48
2022/03/20 15:51:48;;;;;;;10.00;6.90;;;;;;;;;;10365839;28;20076;-47
2022/03/20 15:56:49;;;;;;;9.50;7.07;;;;;;;;;;10365296;28;20038;-55
2022/03/20 16:01:50;;;;;;;12.00;6.82;;;;;;;;;;10366312;28;20021;-48
2022/03/20 16:06:51;;;;;;;13.57;7.15;;;;;;;;;;10366209;28;22540;-49
2022/03/20 16:11:51;;;;;;;11.43;6.88;;;;;;;;;;10370327;28;20401;-48
2022/03/20 16:16:52;;;;;;;11.25;6.75;;;;;;;;;;10372064;28;20032;-48
2022/03/20 16:21:53;;;;;;;18.15;7.10;;;;;;;;;;10373250;28;20548;-47
2022/03/20 16:32:13;;;;;;;;;;;;;;;;;;10371352;28;20401;-47
2022/03/20 16:37:14;;;;;;;9.40;6.75;;;;;;;;;;10369718;28;19922;-48
2022/03/20 16:42:16;;;;;;;10.65;6.85;;;;;;;;;;10367185;28;20030;-48
2022/03/20 16:47:17;;;;;;;9.98;6.80;;;;;;;;;;10368176;28;20048;-48
2022/03/20 16:52:18;;;;;;;12.05;6.70;;;;;;;;;;10371376;28;20034;-48
2022/03/20 16:57:18;;;;;;;11.68;7.20;;;;;;;;;;10369815;28;20038;-48
2022/03/20 17:02:19;;;;;;;12.52;6.70;;;;;;;;;;10369390;28;20521;-48
2022/03/20 17:07:20;;;;;;;7.20;6.40;;;;;;;;;;10364158;28;20033;-48
2022/03/20 17:12:22;;;;;;;17.58;6.97;;;;;;;;;;10369748;28;20126;-49
2022/03/20 17:17:24;;;;;;;8.57;6.22;;;;;;;;;;10357933;28;20414;-47
2022/03/20 17:22:25;;;;;;;10.95;6.80;;;;;;;;;;10363875;28;20133;-48
2022/03/20 17:27:26;;;;;;;10.13;7.13;;;;;;;;;;10362987;28;20105;-48
2022/03/20 17:32:27;;;;;;;9.48;6.88;;;;;;;;;;10367747;28;20033;-48
2022/03/20 17:37:28;;;;;;;12.10;7.10;;;;;;;;;;10367453;28;20030;-49
2022/03/20 17:42:28;;;;;;;10.63;6.68;;;;;;;;;;10364255;28;20021;-48
2022/03/20 17:47:29;;;;;;;9.75;6.78;;;;;;;;;;10363349;28;20060;-47
2022/03/20 17:52:30;;;;;;;8.30;6.63;;;;;;;;;;10367039;28;20476;-49
2022/03/20 17:57:31;;;;;;;8.77;6.00;;;;;;;;;;10368298;28;20049;-47
2022/03/20 18:07:51;;;;;;;8.77;6.70;;;;;;;;;;10359656;28;20513;-48
2022/03/20 18:12:52;;;;;;;8.05;6.53;;;;;;;;;;10353248;28;20025;-48
2022/03/20 18:17:54;;;;;;;8.93;6.70;;;;;;;;;;10359252;28;20030;-47
2022/03/20 18:22:56;;;;;;;9.98;6.88;;;;;;;;;;10359500;28;20112;-47
2022/03/20 18:27:58;;;;;;;13.13;7.00;;;;;;;;;;10367309;28;20437;-47
2022/03/20 18:33:00;;;;;;;9.45;5.95;;;;;;;;;;10362675;28;20520;-47
2022/03/20 18:38:05;;;;;;;12.10;6.28;;;;;;;;;;10367384;28;20113;-47
2022/03/20 18:43:06;;;;;;;9.07;6.53;;;;;;;;;;10367046;28;20041;-47
2022/03/20 18:48:09;;;;;;;12.68;5.85;;;;;;;;;;10366768;28;20150;-47
2022/03/20 18:53:09;;;;;;;11.25;6.70;;;;;;;;;;10366657;28;20036;-47
2022/03/20 18:58:10;;;;;;;14.48;6.18;;;;;;;;;;10411046;22;20058;-60
2022/03/20 19:03:11;;;;;;;11.48;6.00;;;;;;;;;;10401589;28;20128;-61
2022/03/20 19:08:13;;;;;;;9.80;6.15;;;;;;;;;;10370542;28;20056;-61
2022/03/20 19:13:14;;;;;;;9.38;6.57;;;;;;;;;;10364248;28;20374;-60
2022/03/20 19:18:15;;;;;;;15.85;6.47;;;;;;;;;;10365012;28;20056;-60
2022/03/20 19:23:16;;;;;;;7.28;5.30;;;;;;;;;;10352713;28;20034;-61
2022/03/20 19:28:17;;;;;;;14.55;5.97;;;;;;;;;;10364351;28;20176;-60
2022/03/20 19:33:18;;;;;;;8.85;5.72;;;;;;;;;;10364374;28;20046;-60
2022/03/20 19:43:38;;;;;;;14.25;6.63;;;;;;;;;;10363694;28;20041;-60
2022/03/20 19:48:39;;;;;;;10.57;5.90;;;;;;;;;;10364834;28;20029;-59
2022/03/20 19:53:40;;;;;;;8.50;5.55;;;;;;;;;;10364830;28;20120;-60
2022/03/20 19:58:41;;;;;;;10.63;6.03;;;;;;;;;;10364859;28;20084;-60
2022/03/20 20:03:44;;;;;;;8.65;5.63;;;;;;;;;;10363535;28;20038;-62
2022/03/20 20:08:45;;;;;;;13.00;5.55;;;;;;;;;;10364509;28;20041;-61
2022/03/20 20:19:04;;;;;;;;;;;;;;;;;;10364134;28;20043;-61
2022/03/20 20:24:05;;;;;;;12.25;5.40;;;;;;;;;;10356226;28;19921;-60
2022/03/20 20:29:08;;;;;;;10.50;6.03;;;;;;;;;;10355307;28;20041;-60
2022/03/20 20:34:10;;;;;;;10.25;5.93;;;;;;;;;;10311544;28;20022;-62
2022/03/20 20:39:10;;;;;;;6.90;5.90;;;;;;;;;;10345216;28;20030;-60
2022/03/20 20:44:12;;;;;;;9.70;5.90;;;;;;;;;;10355266;28;20037;-61
2022/03/20 20:49:19;;;;;;;9.60;6.25;;;;;;;;;;10344644;28;20269;-58
2022/03/20 20:54:20;;;;;;;7.93;5.53;;;;;;;;;;10348248;28;20478;-63
2022/03/20 20:59:21;;;;;;;10.60;5.47;;;;;;;;;;10365599;28;20083;-59
2022/03/20 21:04:22;;;;;;;13.02;6.00;;;;;;;;;;10360246;28;20517;-60
2022/03/20 21:14:42;;;;;;;20.55;6.35;;;;;;;;;;10362553;28;20474;-64
2022/03/20 21:19:43;;;;;;;19.20;6.88;;;;;;;;;;10346371;28;20155;-64
2022/03/20 21:24:43;;;;;;;18.35;6.22;;;;;;;;;;10368021;28;20188;-63
2022/03/20 21:29:45;;;;;;;18.42;6.28;;;;;;;;;;10341713;28;20268;-62
2022/03/20 21:34:46;;;;;;;11.90;6.57;;;;;;;;;;10367313;28;20038;-60
2022/03/20 21:39:47;;;;;;;11.23;6.22;;;;;;;;;;10359601;28;20485;-62
2022/03/20 21:44:47;;;;;;;14.25;6.57;;;;;;;;;;10367023;28;20040;-62
2022/03/20 21:49:48;;;;;;;14.50;5.85;;;;;;;;;;10366567;28;20025;-62
2022/03/20 21:54:50;;;;;;;13.23;5.80;;;;;;;;;;10361515;28;20026;-63
2022/03/20 21:59:50;;;;;;;13.43;5.63;;;;;;;;;;10358459;28;20625;-61
2022/03/20 22:04:51;;;;;;;9.05;5.60;;;;;;;;;;10366535;28;20042;-61
2022/03/20 22:09:52;;;;;;;11.60;6.10;;;;;;;;;;10361282;28;20030;-61
2022/03/20 22:14:52;;;;;;;12.52;5.93;;;;;;;;;;10365535;28;20359;-62
2022/03/20 22:19:54;;;;;;;13.15;5.68;;;;;;;;;;10364674;28;20025;-63
2022/03/20 22:24:56;;;;;;;12.57;6.10;;;;;;;;;;10359458;28;20032;-59
2022/03/20 22:29:58;;;;;;;9.77;5.40;;;;;;;;;;10365602;28;20248;-60
2022/03/20 22:40:22;;;;;;;8.63;5.35;;;;;;;;;;10355960;28;20038;-57
2022/03/20 22:45:29;;;;;;;11.82;5.80;;;;;;;;;;10355162;28;20482;-59
2022/03/20 22:50:30;;;;;;;10.23;5.57;;;;;;;;;;10364889;28;20038;-60
2022/03/20 22:55:32;;;;;;;12.35;5.88;;;;;;;;;;10363916;28;20777;-59
2022/03/20 23:00:32;;;;;;;12.75;5.97;;;;;;;;;;10365999;28;20201;-60
2022/03/20 23:05:33;;;;;;;7.32;4.68;;;;;;;;;;10365941;28;20181;-60
2022/03/20 23:10:33;;;;;;;9.88;5.32;;;;;;;;;;10365929;28;20381;-60
2022/03/20 23:15:35;;;;;;;11.27;5.75;;;;;;;;;;10365039;28;20109;-60
2022/03/20 23:20:36;;;;;;;7.97;5.18;;;;;;;;;;10365200;28;20508;-58
2022/03/20 23:25:38;;;;;;;10.05;5.28;;;;;;;;;;10361651;28;20225;-61
2022/03/20 23:30:38;;;;;;;11.30;4.82;;;;;;;;;;10365332;28;20386;-58
2022/03/20 23:35:42;;;;;;;8.48;4.63;;;;;;;;;;10360752;28;20029;-56
2022/03/20 23:43:14;;;;;;;7.78;4.93;;;;;;;;;;10348218;28;20033;-57
2022/03/20 23:46:09;;;;;;;6.90;4.90;;;;;;;;;;10356870;28;20168;-58
2022/03/20 23:51:10;;;;;;;7.30;4.97;;;;;;;;;;10358734;28;20447;-58
2022/03/20 23:56:11;;;;;;;7.25;5.03;;;;;;;;;;10364405;28;20050;-57
